sensor_id;sensor_type;location;lat;lon;timestamp;temperature;humidity
429;DHT22;201;48.758;9.290;2023-06-22T00:00:56;21.50;1.00
429;DHT22;201;48.758;9.290;2023-06-22T00:03:23;21.50;1.00
429;DHT22;201;48.758;9.290;2023-06-22T00:05:50;21.40;1.00
429;DHT22;201;48.758;9.290;2023-06-22T00:08:17;21.50;1.00
429;DHT22;201;48.758;9.290;2023-06-22T00:10:43;21.40;1.00
429;DHT22;201;48.758;9.290;2023-06-22T00:13:09;21.40;1.00
429;DHT22;201;48.758;9.290;2023-06-22T00:15:36;21.40;1.00
429;DHT22;201;48.758;9.290;2023-06-22T00:18:02;21.40;1.00
429;DHT22;201;48.758;9.290;2023-06-22T00:20:28;21.30;1.00
429;DHT22;201;48.758;9.290;2023-06-22T00:22:55;21.30;1.00
429;DHT22;201;48.758;9.290;2023-06-22T00:25:20;21.30;1.00
429;DHT22;201;48.758;9.290;2023-06-22T00:27:46;21.30;1.00
429;DHT22;201;48.758;9.290;2023-06-22T00:30:12;21.20;1.00
429;DHT22;201;48.758;9.290;2023-06-22T00:32:38;21.20;1.00
429;DHT22;201;48.758;9.290;2023-06-22T00:35:04;21.20;1.00
429;DHT22;201;48.758;9.290;2023-06-22T00:37:30;21.20;1.00
429;DHT22;201;48.758;9.290;2023-06-22T00:39:56;21.20;1.00
429;DHT22;201;48.758;9.290;2023-06-22T00:42:22;21.10;1.00
429;DHT22;201;48.758;9.290;2023-06-22T00:44:47;21.10;1.00
429;DHT22;201;48.758;9.290;2023-06-22T00:47:15;21.10;1.20
429;DHT22;201;48.758;9.290;2023-06-22T00:49:41;21.10;1.40
429;DHT22;201;48.758;9.290;2023-06-22T00:52:07;21.10;1.50
429;DHT22;201;48.758;9.290;2023-06-22T00:54:35;21.10;1.90
429;DHT22;201;48.758;9.290;2023-06-22T00:57:01;21.00;2.60
429;DHT22;201;48.758;9.290;2023-06-22T00:59:27;21.00;2.20
429;DHT22;201;48.758;9.290;2023-06-22T01:01:53;21.00;2.70
429;DHT22;201;48.758;9.290;2023-06-22T01:04:18;20.90;2.90
429;DHT22;201;48.758;9.290;2023-06-22T01:06:54;20.90;3.10
429;DHT22;201;48.758;9.290;2023-06-22T01:09:30;20.90;2.80
429;DHT22;201;48.758;9.290;2023-06-22T01:12:01;20.80;3.50
429;DHT22;201;48.758;9.290;2023-06-22T01:14:41;20.80;3.80
429;DHT22;201;48.758;9.290;2023-06-22T01:17:08;20.70;3.70
429;DHT22;201;48.758;9.290;2023-06-22T01:19:44;20.70;3.70
429;DHT22;201;48.758;9.290;2023-06-22T01:22:14;20.60;4.20
429;DHT22;201;48.758;9.290;2023-06-22T01:25:04;20.60;4.50
429;DHT22;201;48.758;9.290;2023-06-22T01:27:40;20.50;4.40
429;DHT22;201;48.758;9.290;2023-06-22T01:30:14;20.50;4.90
429;DHT22;201;48.758;9.290;2023-06-22T01:32:41;20.40;5.30
429;DHT22;201;48.758;9.290;2023-06-22T01:35:08;20.40;5.30
429;DHT22;201;48.758;9.290;2023-06-22T01:37:36;20.40;5.00
429;DHT22;201;48.758;9.290;2023-06-22T01:40:02;20.40;5.20
429;DHT22;201;48.758;9.290;2023-06-22T01:42:30;20.40;5.40
429;DHT22;201;48.758;9.290;2023-06-22T01:44:57;20.30;5.60
429;DHT22;201;48.758;9.290;2023-06-22T01:47:24;20.20;5.30
429;DHT22;201;48.758;9.290;2023-06-22T01:49:50;20.20;4.90
429;DHT22;201;48.758;9.290;2023-06-22T01:52:19;20.20;4.60
429;DHT22;201;48.758;9.290;2023-06-22T01:54:46;20.20;5.30
429;DHT22;201;48.758;9.290;2023-06-22T01:57:12;20.20;5.20
429;DHT22;201;48.758;9.290;2023-06-22T02:02:11;20.20;4.80
429;DHT22;201;48.758;9.290;2023-06-22T02:05:05;20.20;5.00
429;DHT22;201;48.758;9.290;2023-06-22T02:07:35;20.20;5.60
429;DHT22;201;48.758;9.290;2023-06-22T02:10:04;20.20;5.20
429;DHT22;201;48.758;9.290;2023-06-22T02:12:32;20.20;5.30
429;DHT22;201;48.758;9.290;2023-06-22T02:14:59;20.10;5.10
429;DHT22;201;48.758;9.290;2023-06-22T02:17:26;20.20;5.40
429;DHT22;201;48.758;9.290;2023-06-22T02:19:52;20.20;5.60
429;DHT22;201;48.758;9.290;2023-06-22T02:22:17;20.10;5.80
429;DHT22;201;48.758;9.290;2023-06-22T02:24:43;20.10;5.50
429;DHT22;201;48.758;9.290;2023-06-22T02:27:08;20.10;5.50
429;DHT22;201;48.758;9.290;2023-06-22T02:29:36;20.00;5.60
429;DHT22;201;48.758;9.290;2023-06-22T02:32:02;20.00;5.90
429;DHT22;201;48.758;9.290;2023-06-22T02:34:27;20.00;6.60
429;DHT22;201;48.758;9.290;2023-06-22T02:36:53;19.90;6.50
429;DHT22;201;48.758;9.290;2023-06-22T02:39:20;19.90;6.80
429;DHT22;201;48.758;9.290;2023-06-22T02:41:47;19.90;6.20
429;DHT22;201;48.758;9.290;2023-06-22T02:44:12;19.90;6.10
429;DHT22;201;48.758;9.290;2023-06-22T02:46:38;20.00;6.10
429;DHT22;201;48.758;9.290;2023-06-22T02:49:04;20.00;5.90
429;DHT22;201;48.758;9.290;2023-06-22T02:51:32;20.00;5.90
429;DHT22;201;48.758;9.290;2023-06-22T02:53:59;20.00;6.00
429;DHT22;201;48.758;9.290;2023-06-22T02:56:24;20.00;6.00
429;DHT22;201;48.758;9.290;2023-06-22T02:58:53;20.00;6.10
429;DHT22;201;48.758;9.290;2023-06-22T03:01:18;20.00;5.60
429;DHT22;201;48.758;9.290;2023-06-22T03:03:49;20.00;8.10
429;DHT22;201;48.758;9.290;2023-06-22T03:06:14;20.00;8.10
429;DHT22;201;48.758;9.290;2023-06-22T03:08:40;19.90;6.50
429;DHT22;201;48.758;9.290;2023-06-22T03:11:07;19.90;6.10
429;DHT22;201;48.758;9.290;2023-06-22T03:13:33;19.90;6.10
429;DHT22;201;48.758;9.290;2023-06-22T03:15:58;19.90;6.70
429;DHT22;201;48.758;9.290;2023-06-22T03:18:24;19.90;6.60
429;DHT22;201;48.758;9.290;2023-06-22T03:20:50;19.90;6.70
429;DHT22;201;48.758;9.290;2023-06-22T03:23:15;19.80;7.20
429;DHT22;201;48.758;9.290;2023-06-22T03:25:41;19.70;7.90
429;DHT22;201;48.758;9.290;2023-06-22T03:28:07;19.70;7.90
429;DHT22;201;48.758;9.290;2023-06-22T03:30:32;19.70;7.90
429;DHT22;201;48.758;9.290;2023-06-22T03:32:58;19.70;7.90
429;DHT22;201;48.758;9.290;2023-06-22T03:35:23;19.60;7.80
429;DHT22;201;48.758;9.290;2023-06-22T03:37:49;19.60;7.80
429;DHT22;201;48.758;9.290;2023-06-22T03:40:14;19.70;7.90
429;DHT22;201;48.758;9.290;2023-06-22T03:42:40;19.80;6.80
429;DHT22;201;48.758;9.290;2023-06-22T03:45:06;19.80;6.60
429;DHT22;201;48.758;9.290;2023-06-22T03:47:32;19.90;6.30
429;DHT22;201;48.758;9.290;2023-06-22T03:49:57;19.90;6.30
429;DHT22;201;48.758;9.290;2023-06-22T03:52:23;20.00;6.40
429;DHT22;201;48.758;9.290;2023-06-22T03:54:48;20.00;5.80
429;DHT22;201;48.758;9.290;2023-06-22T03:57:14;20.00;5.30
429;DHT22;201;48.758;9.290;2023-06-22T03:59:39;20.10;5.00
429;DHT22;201;48.758;9.290;2023-06-22T04:02:05;20.10;4.70
429;DHT22;201;48.758;9.290;2023-06-22T04:04:30;20.10;4.60
429;DHT22;201;48.758;9.290;2023-06-22T04:06:56;20.20;4.50
429;DHT22;201;48.758;9.290;2023-06-22T04:09:21;20.20;4.40
429;DHT22;201;48.758;9.290;2023-06-22T04:11:47;20.10;4.40
429;DHT22;201;48.758;9.290;2023-06-22T04:14:13;20.20;4.60
429;DHT22;201;48.758;9.290;2023-06-22T04:16:38;20.30;4.90
429;DHT22;201;48.758;9.290;2023-06-22T04:19:04;20.30;4.40
429;DHT22;201;48.758;9.290;2023-06-22T04:21:29;20.30;4.10
429;DHT22;201;48.758;9.290;2023-06-22T04:23:55;20.30;3.90
429;DHT22;201;48.758;9.290;2023-06-22T04:26:21;20.40;3.80
429;DHT22;201;48.758;9.290;2023-06-22T04:28:47;20.50;3.50
429;DHT22;201;48.758;9.290;2023-06-22T04:31:17;20.50;3.40
429;DHT22;201;48.758;9.290;2023-06-22T04:33:44;20.60;3.40
429;DHT22;201;48.758;9.290;2023-06-22T04:36:10;20.60;4.30
429;DHT22;201;48.758;9.290;2023-06-22T04:38:38;20.70;3.90
429;DHT22;201;48.758;9.290;2023-06-22T04:41:04;20.80;2.20
429;DHT22;201;48.758;9.290;2023-06-22T04:43:29;20.80;2.00
429;DHT22;201;48.758;9.290;2023-06-22T04:45:56;20.90;1.60
429;DHT22;201;48.758;9.290;2023-06-22T04:48:22;20.90;2.00
429;DHT22;201;48.758;9.290;2023-06-22T04:50:47;21.00;1.60
429;DHT22;201;48.758;9.290;2023-06-22T04:53:13;21.10;1.20
429;DHT22;201;48.758;9.290;2023-06-22T04:55:39;21.20;1.50
429;DHT22;201;48.758;9.290;2023-06-22T04:58:07;21.30;1.50
429;DHT22;201;48.758;9.290;2023-06-22T05:00:33;21.40;1.00
429;DHT22;201;48.758;9.290;2023-06-22T05:03:02;21.50;1.00
429;DHT22;201;48.758;9.290;2023-06-22T05:05:29;21.60;1.00
429;DHT22;201;48.758;9.290;2023-06-22T05:07:56;21.70;1.00
429;DHT22;201;48.758;9.290;2023-06-22T05:10:25;21.80;1.00
429;DHT22;201;48.758;9.290;2023-06-22T05:12:51;22.10;1.00
429;DHT22;201;48.758;9.290;2023-06-22T05:15:17;22.30;1.00
429;DHT22;201;48.758;9.290;2023-06-22T05:17:44;22.40;1.00
429;DHT22;201;48.758;9.290;2023-06-22T05:20:13;22.40;1.00
429;DHT22;201;48.758;9.290;2023-06-22T05:22:40;22.50;1.00
429;DHT22;201;48.758;9.290;2023-06-22T05:25:08;22.70;1.00
429;DHT22;201;48.758;9.290;2023-06-22T05:27:34;22.80;1.00
429;DHT22;201;48.758;9.290;2023-06-22T05:30:08;22.80;1.00
429;DHT22;201;48.758;9.290;2023-06-22T05:32:34;22.90;1.00
429;DHT22;201;48.758;9.290;2023-06-22T05:35:00;22.80;1.00
429;DHT22;201;48.758;9.290;2023-06-22T05:37:25;22.90;1.00
429;DHT22;201;48.758;9.290;2023-06-22T05:39:51;23.00;1.00
429;DHT22;201;48.758;9.290;2023-06-22T05:42:17;23.40;1.00
429;DHT22;201;48.758;9.290;2023-06-22T05:44:42;24.10;1.00
429;DHT22;201;48.758;9.290;2023-06-22T05:47:08;24.90;1.00
429;DHT22;201;48.758;9.290;2023-06-22T05:49:34;25.60;1.00
429;DHT22;201;48.758;9.290;2023-06-22T05:51:59;26.10;1.00
429;DHT22;201;48.758;9.290;2023-06-22T05:54:27;26.30;1.00
429;DHT22;201;48.758;9.290;2023-06-22T05:56:52;26.40;1.00
429;DHT22;201;48.758;9.290;2023-06-22T05:59:18;26.40;1.00
429;DHT22;201;48.758;9.290;2023-06-22T06:01:43;27.00;1.00
429;DHT22;201;48.758;9.290;2023-06-22T06:04:09;27.60;1.00
429;DHT22;201;48.758;9.290;2023-06-22T06:06:34;28.20;1.00
429;DHT22;201;48.758;9.290;2023-06-22T06:09:03;28.40;1.00
429;DHT22;201;48.758;9.290;2023-06-22T06:11:28;28.50;1.00
429;DHT22;201;48.758;9.290;2023-06-22T06:13:54;28.60;1.00
429;DHT22;201;48.758;9.290;2023-06-22T06:16:19;28.80;1.00
429;DHT22;201;48.758;9.290;2023-06-22T06:18:45;28.60;1.00
429;DHT22;201;48.758;9.290;2023-06-22T06:21:10;28.80;1.00
429;DHT22;201;48.758;9.290;2023-06-22T06:23:36;28.90;1.00
429;DHT22;201;48.758;9.290;2023-06-22T06:26:01;28.80;1.00
429;DHT22;201;48.758;9.290;2023-06-22T06:28:27;28.70;1.00
429;DHT22;201;48.758;9.290;2023-06-22T06:30:53;28.70;1.00
429;DHT22;201;48.758;9.290;2023-06-22T06:33:19;28.80;1.00
429;DHT22;201;48.758;9.290;2023-06-22T06:35:46;28.90;1.00
429;DHT22;201;48.758;9.290;2023-06-22T06:38:11;29.20;1.00
429;DHT22;201;48.758;9.290;2023-06-22T06:40:37;30.20;1.00
429;DHT22;201;48.758;9.290;2023-06-22T06:43:02;30.90;1.00
429;DHT22;201;48.758;9.290;2023-06-22T06:45:28;31.40;1.00
429;DHT22;201;48.758;9.290;2023-06-22T06:47:54;32.70;1.00
429;DHT22;201;48.758;9.290;2023-06-22T06:50:21;33.20;1.00
429;DHT22;201;48.758;9.290;2023-06-22T06:52:46;34.30;1.00
429;DHT22;201;48.758;9.290;2023-06-22T06:55:12;34.90;1.00
429;DHT22;201;48.758;9.290;2023-06-22T06:57:39;35.60;1.00
429;DHT22;201;48.758;9.290;2023-06-22T07:00:08;35.70;1.00
429;DHT22;201;48.758;9.290;2023-06-22T07:02:38;36.20;1.00
429;DHT22;201;48.758;9.290;2023-06-22T07:05:04;36.70;1.00
429;DHT22;201;48.758;9.290;2023-06-22T07:07:31;37.30;1.00
429;DHT22;201;48.758;9.290;2023-06-22T07:09:56;37.20;1.00
429;DHT22;201;48.758;9.290;2023-06-22T07:12:22;37.00;1.00
429;DHT22;201;48.758;9.290;2023-06-22T07:14:47;37.70;1.00
429;DHT22;201;48.758;9.290;2023-06-22T07:17:13;38.60;1.00
429;DHT22;201;48.758;9.290;2023-06-22T07:19:39;39.00;1.00
429;DHT22;201;48.758;9.290;2023-06-22T07:22:04;39.20;1.00
429;DHT22;201;48.758;9.290;2023-06-22T07:24:30;39.80;1.00
429;DHT22;201;48.758;9.290;2023-06-22T07:26:55;40.20;1.00
429;DHT22;201;48.758;9.290;2023-06-22T07:29:24;40.00;1.00
429;DHT22;201;48.758;9.290;2023-06-22T07:31:50;39.40;1.00
429;DHT22;201;48.758;9.290;2023-06-22T07:34:16;39.80;1.00
429;DHT22;201;48.758;9.290;2023-06-22T07:36:43;39.80;1.00
429;DHT22;201;48.758;9.290;2023-06-22T07:39:08;39.20;1.00
429;DHT22;201;48.758;9.290;2023-06-22T07:41:34;37.90;1.00
429;DHT22;201;48.758;9.290;2023-06-22T07:43:59;36.90;1.00
429;DHT22;201;48.758;9.290;2023-06-22T07:46:25;36.40;1.00
429;DHT22;201;48.758;9.290;2023-06-22T07:48:51;36.30;1.00
429;DHT22;201;48.758;9.290;2023-06-22T07:51:17;36.30;1.00
429;DHT22;201;48.758;9.290;2023-06-22T07:53:43;36.60;1.00
429;DHT22;201;48.758;9.290;2023-06-22T07:56:12;35.90;1.00
429;DHT22;201;48.758;9.290;2023-06-22T07:58:38;35.10;1.00
429;DHT22;201;48.758;9.290;2023-06-22T08:01:04;35.60;1.00
429;DHT22;201;48.758;9.290;2023-06-22T08:03:30;35.10;1.00
429;DHT22;201;48.758;9.290;2023-06-22T08:05:55;34.90;1.00
429;DHT22;201;48.758;9.290;2023-06-22T08:08:21;34.90;1.00
429;DHT22;201;48.758;9.290;2023-06-22T08:10:47;35.50;1.00
429;DHT22;201;48.758;9.290;2023-06-22T08:13:12;36.60;1.00
429;DHT22;201;48.758;9.290;2023-06-22T08:15:38;37.10;1.00
429;DHT22;201;48.758;9.290;2023-06-22T08:18:03;37.90;1.00
429;DHT22;201;48.758;9.290;2023-06-22T08:20:29;38.40;1.00
429;DHT22;201;48.758;9.290;2023-06-22T08:22:55;38.40;1.00
429;DHT22;201;48.758;9.290;2023-06-22T08:25:23;38.50;1.00
429;DHT22;201;48.758;9.290;2023-06-22T08:27:48;37.50;1.00
429;DHT22;201;48.758;9.290;2023-06-22T08:30:14;36.20;1.00
429;DHT22;201;48.758;9.290;2023-06-22T08:32:40;35.90;1.00
429;DHT22;201;48.758;9.290;2023-06-22T08:35:06;36.00;1.00
429;DHT22;201;48.758;9.290;2023-06-22T08:37:34;36.60;1.00
429;DHT22;201;48.758;9.290;2023-06-22T08:40:02;37.20;1.00
429;DHT22;201;48.758;9.290;2023-06-22T08:42:30;38.60;1.00
429;DHT22;201;48.758;9.290;2023-06-22T08:44:56;40.20;1.00
429;DHT22;201;48.758;9.290;2023-06-22T08:47:22;42.00;1.00
429;DHT22;201;48.758;9.290;2023-06-22T08:49:48;43.60;1.00
429;DHT22;201;48.758;9.290;2023-06-22T08:52:14;43.40;1.00
429;DHT22;201;48.758;9.290;2023-06-22T08:54:40;42.40;1.00
429;DHT22;201;48.758;9.290;2023-06-22T08:57:06;41.20;1.00
429;DHT22;201;48.758;9.290;2023-06-22T08:59:31;40.70;1.00
429;DHT22;201;48.758;9.290;2023-06-22T09:01:57;40.30;1.00
429;DHT22;201;48.758;9.290;2023-06-22T09:04:22;39.70;1.00
429;DHT22;201;48.758;9.290;2023-06-22T09:06:48;40.10;1.00
429;DHT22;201;48.758;9.290;2023-06-22T09:09:15;41.80;1.00
429;DHT22;201;48.758;9.290;2023-06-22T09:11:41;43.30;1.00
429;DHT22;201;48.758;9.290;2023-06-22T09:14:08;43.60;1.00
429;DHT22;201;48.758;9.290;2023-06-22T09:16:34;43.70;1.00
429;DHT22;201;48.758;9.290;2023-06-22T09:18:59;44.00;1.00
429;DHT22;201;48.758;9.290;2023-06-22T09:21:25;44.70;1.00
429;DHT22;201;48.758;9.290;2023-06-22T09:23:50;45.20;1.00
429;DHT22;201;48.758;9.290;2023-06-22T09:26:20;46.00;1.00
429;DHT22;201;48.758;9.290;2023-06-22T09:28:45;47.30;1.00
429;DHT22;201;48.758;9.290;2023-06-22T09:31:11;48.30;1.00
429;DHT22;201;48.758;9.290;2023-06-22T09:33:37;48.90;1.00
429;DHT22;201;48.758;9.290;2023-06-22T09:36:06;49.40;1.00
429;DHT22;201;48.758;9.290;2023-06-22T09:38:37;49.10;1.00
429;DHT22;201;48.758;9.290;2023-06-22T09:41:03;48.60;1.00
429;DHT22;201;48.758;9.290;2023-06-22T09:43:29;46.90;1.00
429;DHT22;201;48.758;9.290;2023-06-22T09:45:54;47.60;1.00
429;DHT22;201;48.758;9.290;2023-06-22T09:48:20;48.00;1.00
429;DHT22;201;48.758;9.290;2023-06-22T09:50:46;48.20;1.00
429;DHT22;201;48.758;9.290;2023-06-22T09:53:11;48.80;1.00
429;DHT22;201;48.758;9.290;2023-06-22T09:55:37;48.60;1.00
429;DHT22;201;48.758;9.290;2023-06-22T09:58:02;48.60;1.00
429;DHT22;201;48.758;9.290;2023-06-22T10:00:28;48.00;1.00
429;DHT22;201;48.758;9.290;2023-06-22T10:02:54;47.70;1.00
429;DHT22;201;48.758;9.290;2023-06-22T10:05:21;47.60;1.00
429;DHT22;201;48.758;9.290;2023-06-22T10:07:46;47.90;1.00
429;DHT22;201;48.758;9.290;2023-06-22T10:10:12;48.90;1.00
429;DHT22;201;48.758;9.290;2023-06-22T10:12:42;49.30;1.00
429;DHT22;201;48.758;9.290;2023-06-22T10:15:09;48.60;1.00
429;DHT22;201;48.758;9.290;2023-06-22T10:17:34;47.00;1.00
429;DHT22;201;48.758;9.290;2023-06-22T10:20:00;44.70;1.00
429;DHT22;201;48.758;9.290;2023-06-22T10:22:30;42.30;1.00
429;DHT22;201;48.758;9.290;2023-06-22T10:24:56;40.60;1.00
429;DHT22;201;48.758;9.290;2023-06-22T10:27:21;39.20;1.00
429;DHT22;201;48.758;9.290;2023-06-22T10:29:47;38.40;1.00
429;DHT22;201;48.758;9.290;2023-06-22T10:32:12;38.20;1.00
429;DHT22;201;48.758;9.290;2023-06-22T10:34:38;38.50;1.00
429;DHT22;201;48.758;9.290;2023-06-22T10:37:04;38.70;1.00
429;DHT22;201;48.758;9.290;2023-06-22T10:39:29;38.20;1.00
429;DHT22;201;48.758;9.290;2023-06-22T10:41:55;37.50;1.00
429;DHT22;201;48.758;9.290;2023-06-22T10:44:21;37.00;1.00
429;DHT22;201;48.758;9.290;2023-06-22T10:46:46;36.40;1.00
429;DHT22;201;48.758;9.290;2023-06-22T10:49:12;36.40;1.00
429;DHT22;201;48.758;9.290;2023-06-22T10:51:38;35.70;1.00
429;DHT22;201;48.758;9.290;2023-06-22T10:54:03;35.60;1.00
429;DHT22;201;48.758;9.290;2023-06-22T10:56:29;35.70;1.00
429;DHT22;201;48.758;9.290;2023-06-22T10:58:55;35.50;1.00
429;DHT22;201;48.758;9.290;2023-06-22T11:01:21;35.20;1.00
429;DHT22;201;48.758;9.290;2023-06-22T11:03:46;34.70;1.00
429;DHT22;201;48.758;9.290;2023-06-22T11:06:12;34.20;1.00
429;DHT22;201;48.758;9.290;2023-06-22T11:08:37;33.70;1.00
429;DHT22;201;48.758;9.290;2023-06-22T11:11:03;33.50;1.00
429;DHT22;201;48.758;9.290;2023-06-22T11:13:28;33.60;1.00
429;DHT22;201;48.758;9.290;2023-06-22T11:15:54;33.70;1.00
429;DHT22;201;48.758;9.290;2023-06-22T11:18:19;33.70;1.00
429;DHT22;201;48.758;9.290;2023-06-22T11:20:45;34.00;1.00
429;DHT22;201;48.758;9.290;2023-06-22T11:23:10;34.20;1.00
429;DHT22;201;48.758;9.290;2023-06-22T11:25:37;34.20;1.00
429;DHT22;201;48.758;9.290;2023-06-22T11:28:04;34.20;1.00
429;DHT22;201;48.758;9.290;2023-06-22T11:30:30;34.20;1.00
429;DHT22;201;48.758;9.290;2023-06-22T11:32:58;34.40;1.00
429;DHT22;201;48.758;9.290;2023-06-22T11:35:24;34.60;1.00
429;DHT22;201;48.758;9.290;2023-06-22T11:37:49;34.80;1.00
429;DHT22;201;48.758;9.290;2023-06-22T11:40:15;34.70;1.00
429;DHT22;201;48.758;9.290;2023-06-22T11:42:40;34.30;1.00
429;DHT22;201;48.758;9.290;2023-06-22T11:45:06;34.50;1.00
429;DHT22;201;48.758;9.290;2023-06-22T11:47:32;34.50;1.00
429;DHT22;201;48.758;9.290;2023-06-22T11:49:57;34.30;1.00
429;DHT22;201;48.758;9.290;2023-06-22T11:52:23;34.20;1.00
429;DHT22;201;48.758;9.290;2023-06-22T11:54:48;33.80;1.00
429;DHT22;201;48.758;9.290;2023-06-22T11:57:14;33.60;1.00
429;DHT22;201;48.758;9.290;2023-06-22T11:59:39;33.30;1.00
429;DHT22;201;48.758;9.290;2023-06-22T12:02:05;33.20;1.00
429;DHT22;201;48.758;9.290;2023-06-22T12:04:32;33.20;1.00
429;DHT22;201;48.758;9.290;2023-06-22T12:06:58;33.40;1.00
429;DHT22;201;48.758;9.290;2023-06-22T12:09:24;33.20;1.00
429;DHT22;201;48.758;9.290;2023-06-22T12:11:49;33.60;1.00
429;DHT22;201;48.758;9.290;2023-06-22T12:14:15;34.00;1.00
429;DHT22;201;48.758;9.290;2023-06-22T12:16:40;34.30;1.00
429;DHT22;201;48.758;9.290;2023-06-22T12:19:06;34.00;1.00
429;DHT22;201;48.758;9.290;2023-06-22T12:21:31;34.00;1.00
429;DHT22;201;48.758;9.290;2023-06-22T12:23:56;34.20;1.00
429;DHT22;201;48.758;9.290;2023-06-22T12:26:22;34.30;1.00
429;DHT22;201;48.758;9.290;2023-06-22T12:28:48;34.10;1.00
429;DHT22;201;48.758;9.290;2023-06-22T12:31:14;34.20;1.00
429;DHT22;201;48.758;9.290;2023-06-22T12:33:39;34.20;1.00
429;DHT22;201;48.758;9.290;2023-06-22T12:36:05;34.10;1.00
429;DHT22;201;48.758;9.290;2023-06-22T12:38:30;33.90;1.00
429;DHT22;201;48.758;9.290;2023-06-22T12:40:56;33.80;1.00
429;DHT22;201;48.758;9.290;2023-06-22T12:43:21;33.50;1.00
429;DHT22;201;48.758;9.290;2023-06-22T12:45:47;33.30;1.00
429;DHT22;201;48.758;9.290;2023-06-22T12:48:12;33.00;1.00
429;DHT22;201;48.758;9.290;2023-06-22T12:50:38;32.80;1.00
429;DHT22;201;48.758;9.290;2023-06-22T12:53:03;32.50;1.00
429;DHT22;201;48.758;9.290;2023-06-22T12:55:31;32.30;1.00
429;DHT22;201;48.758;9.290;2023-06-22T12:57:57;32.20;1.00
429;DHT22;201;48.758;9.290;2023-06-22T13:00:22;32.10;1.00
429;DHT22;201;48.758;9.290;2023-06-22T13:02:48;32.20;1.00
429;DHT22;201;48.758;9.290;2023-06-22T13:05:13;32.40;1.00
429;DHT22;201;48.758;9.290;2023-06-22T13:07:39;32.50;1.00
429;DHT22;201;48.758;9.290;2023-06-22T13:10:05;32.60;1.00
429;DHT22;201;48.758;9.290;2023-06-22T13:12:30;32.70;1.00
429;DHT22;201;48.758;9.290;2023-06-22T13:14:56;32.60;1.00
429;DHT22;201;48.758;9.290;2023-06-22T13:17:21;32.60;1.00
429;DHT22;201;48.758;9.290;2023-06-22T13:19:47;32.70;1.00
429;DHT22;201;48.758;9.290;2023-06-22T13:22:36;32.80;1.00
429;DHT22;201;48.758;9.290;2023-06-22T13:25:06;32.80;1.00
429;DHT22;201;48.758;9.290;2023-06-22T13:27:32;32.80;1.00
429;DHT22;201;48.758;9.290;2023-06-22T13:29:57;32.90;1.00
429;DHT22;201;48.758;9.290;2023-06-22T13:32:23;33.10;1.00
429;DHT22;201;48.758;9.290;2023-06-22T13:34:48;33.40;1.00
429;DHT22;201;48.758;9.290;2023-06-22T13:37:14;33.60;1.00
429;DHT22;201;48.758;9.290;2023-06-22T13:39:39;33.80;1.00
429;DHT22;201;48.758;9.290;2023-06-22T13:42:05;33.80;1.00
429;DHT22;201;48.758;9.290;2023-06-22T13:44:31;33.60;1.00
429;DHT22;201;48.758;9.290;2023-06-22T13:46:56;33.50;1.00
429;DHT22;201;48.758;9.290;2023-06-22T13:49:22;33.40;1.00
429;DHT22;201;48.758;9.290;2023-06-22T13:51:48;33.40;1.00
429;DHT22;201;48.758;9.290;2023-06-22T13:54:14;33.50;1.00
429;DHT22;201;48.758;9.290;2023-06-22T13:56:40;33.50;1.00
429;DHT22;201;48.758;9.290;2023-06-22T13:59:05;33.60;1.00
429;DHT22;201;48.758;9.290;2023-06-22T14:01:34;33.70;1.00
429;DHT22;201;48.758;9.290;2023-06-22T14:04:00;33.90;1.00
429;DHT22;201;48.758;9.290;2023-06-22T14:06:27;34.00;1.00
429;DHT22;201;48.758;9.290;2023-06-22T14:08:52;34.00;1.00
429;DHT22;201;48.758;9.290;2023-06-22T14:11:18;34.10;1.00
429;DHT22;201;48.758;9.290;2023-06-22T14:13:43;34.10;1.00
429;DHT22;201;48.758;9.290;2023-06-22T14:16:09;34.20;1.00
429;DHT22;201;48.758;9.290;2023-06-22T14:18:34;34.30;1.00
429;DHT22;201;48.758;9.290;2023-06-22T14:21:00;34.30;1.00
429;DHT22;201;48.758;9.290;2023-06-22T14:23:26;34.30;1.00
429;DHT22;201;48.758;9.290;2023-06-22T14:25:52;34.30;1.00
429;DHT22;201;48.758;9.290;2023-06-22T14:28:17;34.30;1.00
429;DHT22;201;48.758;9.290;2023-06-22T14:30:43;34.30;1.00
429;DHT22;201;48.758;9.290;2023-06-22T14:33:09;34.30;1.00
429;DHT22;201;48.758;9.290;2023-06-22T14:35:34;34.30;1.00
429;DHT22;201;48.758;9.290;2023-06-22T14:38:00;34.10;1.00
429;DHT22;201;48.758;9.290;2023-06-22T14:40:25;33.90;1.00
429;DHT22;201;48.758;9.290;2023-06-22T14:42:50;33.80;1.00
429;DHT22;201;48.758;9.290;2023-06-22T14:45:16;33.70;1.00
429;DHT22;201;48.758;9.290;2023-06-22T14:47:42;33.60;1.00
429;DHT22;201;48.758;9.290;2023-06-22T14:50:07;33.60;1.00
429;DHT22;201;48.758;9.290;2023-06-22T14:52:33;33.70;1.00
429;DHT22;201;48.758;9.290;2023-06-22T14:54:58;33.60;1.00
429;DHT22;201;48.758;9.290;2023-06-22T14:57:24;33.80;1.00
429;DHT22;201;48.758;9.290;2023-06-22T14:59:49;33.80;1.00
429;DHT22;201;48.758;9.290;2023-06-22T15:02:16;33.80;1.00
429;DHT22;201;48.758;9.290;2023-06-22T15:04:41;33.70;1.00
429;DHT22;201;48.758;9.290;2023-06-22T15:07:07;33.70;1.00
429;DHT22;201;48.758;9.290;2023-06-22T15:09:32;33.60;1.00
429;DHT22;201;48.758;9.290;2023-06-22T15:11:58;33.40;1.00
429;DHT22;201;48.758;9.290;2023-06-22T15:14:27;33.00;1.00
429;DHT22;201;48.758;9.290;2023-06-22T15:16:53;32.70;1.00
429;DHT22;201;48.758;9.290;2023-06-22T15:19:18;32.40;1.00
429;DHT22;201;48.758;9.290;2023-06-22T15:21:44;32.30;1.00
429;DHT22;201;48.758;9.290;2023-06-22T15:24:09;32.30;1.00
429;DHT22;201;48.758;9.290;2023-06-22T15:26:36;32.40;1.00
429;DHT22;201;48.758;9.290;2023-06-22T15:29:01;32.20;1.00
429;DHT22;201;48.758;9.290;2023-06-22T15:31:27;32.00;1.00
429;DHT22;201;48.758;9.290;2023-06-22T15:33:52;31.90;1.00
429;DHT22;201;48.758;9.290;2023-06-22T15:36:18;31.80;1.00
429;DHT22;201;48.758;9.290;2023-06-22T15:38:44;31.60;1.00
429;DHT22;201;48.758;9.290;2023-06-22T15:41:09;31.50;1.00
429;DHT22;201;48.758;9.290;2023-06-22T15:43:34;31.30;1.00
429;DHT22;201;48.758;9.290;2023-06-22T15:46:00;31.10;1.00
429;DHT22;201;48.758;9.290;2023-06-22T15:48:26;31.00;1.00
429;DHT22;201;48.758;9.290;2023-06-22T15:50:51;31.00;1.00
429;DHT22;201;48.758;9.290;2023-06-22T15:53:17;31.00;1.00
429;DHT22;201;48.758;9.290;2023-06-22T15:55:42;31.10;1.00
429;DHT22;201;48.758;9.290;2023-06-22T15:58:08;31.20;1.00
429;DHT22;201;48.758;9.290;2023-06-22T16:00:35;31.30;1.00
429;DHT22;201;48.758;9.290;2023-06-22T16:03:00;31.40;1.00
429;DHT22;201;48.758;9.290;2023-06-22T16:05:26;31.50;1.00
429;DHT22;201;48.758;9.290;2023-06-22T16:07:54;31.50;1.00
429;DHT22;201;48.758;9.290;2023-06-22T16:10:20;31.50;1.00
429;DHT22;201;48.758;9.290;2023-06-22T16:12:46;31.50;1.00
429;DHT22;201;48.758;9.290;2023-06-22T16:15:11;31.30;1.00
429;DHT22;201;48.758;9.290;2023-06-22T16:17:37;31.20;1.00
429;DHT22;201;48.758;9.290;2023-06-22T16:20:07;31.10;1.00
429;DHT22;201;48.758;9.290;2023-06-22T16:22:33;30.90;1.00
429;DHT22;201;48.758;9.290;2023-06-22T16:24:59;30.80;1.00
429;DHT22;201;48.758;9.290;2023-06-22T16:27:24;30.70;1.00
429;DHT22;201;48.758;9.290;2023-06-22T16:29:50;30.60;1.00
429;DHT22;201;48.758;9.290;2023-06-22T16:32:16;30.40;1.00
429;DHT22;201;48.758;9.290;2023-06-22T16:34:43;30.30;1.00
429;DHT22;201;48.758;9.290;2023-06-22T16:37:11;30.20;1.00
429;DHT22;201;48.758;9.290;2023-06-22T16:39:37;30.00;1.00
429;DHT22;201;48.758;9.290;2023-06-22T16:42:02;30.00;1.00
429;DHT22;201;48.758;9.290;2023-06-22T16:44:28;30.00;1.00
429;DHT22;201;48.758;9.290;2023-06-22T16:46:53;30.00;1.00